createdAt,value
2022-07-29T00:01:19.503Z,100035.28
2022-07-29T00:04:21.862Z,100036.31
2022-07-29T00:07:23.561Z,100037.81
2022-07-29T00:10:24.972Z,100028.53
2022-07-29T00:13:32.479Z,100032.28
2022-07-29T00:16:34.640Z,100041.03
2022-07-29T00:19:36.142Z,100036.53
2022-07-29T00:22:40.516Z,100042.75
2022-07-29T00:25:42.091Z,100036.84
2022-07-29T00:28:43.612Z,100041.06
2022-07-29T00:31:45.190Z,100046.06
2022-07-29T00:35:05.333Z,100054.88
2022-07-29T00:38:07.080Z,100045.69
2022-07-29T00:41:08.527Z,100043.50
2022-07-29T00:44:09.968Z,100045.69
2022-07-29T00:47:13.028Z,100042.44
2022-07-29T00:50:15.019Z,100039.28
2022-07-29T00:53:16.623Z,100044.75
2022-07-29T00:56:18.119Z,100038.69
2022-07-29T00:59:19.634Z,100038.84
2022-07-29T01:02:21.097Z,100028.81
2022-07-29T01:05:25.573Z,100021.81
2022-07-29T01:08:48.696Z,100023.63
2022-07-29T01:11:51.118Z,100003.31
2022-07-29T01:14:54.246Z,100004.25
2022-07-29T01:18:12.042Z,100001.78
2022-07-29T01:21:28.983Z,100000.91
2022-07-29T01:24:44.735Z,99997.00
2022-07-29T01:28:01.992Z,100000.19
2022-07-29T01:31:05.654Z,100001.28
2022-07-29T01:34:12.401Z,100002.78
2022-07-29T01:37:24.800Z,99999.66
2022-07-29T01:40:37.216Z,99993.81
2022-07-29T01:43:49.754Z,99995.44
2022-07-29T01:46:57.084Z,99991.03
2022-07-29T01:50:00.682Z,99997.47
2022-07-29T01:53:05.867Z,99983.72
2022-07-29T01:56:11.189Z,99987.72
2022-07-29T01:59:12.702Z,99979.22
2022-07-29T02:02:17.535Z,99985.91
2022-07-29T02:05:21.346Z,99983.59
2022-07-29T02:08:24.295Z,99987.25
2022-07-29T02:11:26.048Z,99970.22
2022-07-29T02:14:29.621Z,99972.66
2022-07-29T02:17:40.928Z,99974.72
2022-07-29T02:20:46.680Z,99962.38
2022-07-29T02:23:51.391Z,99960.44
2022-07-29T02:26:57.432Z,99969.63
2022-07-29T02:30:01.457Z,99961.88
2022-07-29T02:33:04.507Z,99967.72
2022-07-29T02:36:06.314Z,99974.53
2022-07-29T02:39:10.829Z,99970.69
2022-07-29T02:42:16.099Z,99972.00
2022-07-29T02:45:18.039Z,99975.22
2022-07-29T02:48:23.497Z,99976.56
2022-07-29T02:52:01.232Z,99982.75
2022-07-29T02:55:11.717Z,99988.41
2022-07-29T02:58:29.736Z,99984.25
2022-07-29T03:01:34.852Z,99981.22
2022-07-29T03:04:39.623Z,99978.69
2022-07-29T03:07:44.090Z,99985.09
2022-07-29T03:10:47.997Z,99986.78
2022-07-29T03:13:49.828Z,99983.00
2022-07-29T03:16:52.196Z,99985.31
2022-07-29T03:19:54.176Z,99981.88
2022-07-29T03:22:55.843Z,99980.56
2022-07-29T03:25:57.776Z,99981.19
2022-07-29T03:28:59.353Z,99972.41
2022-07-29T03:32:07.147Z,99977.88
2022-07-29T03:35:09.387Z,99975.50
2022-07-29T03:38:10.940Z,99974.78
2022-07-29T03:41:15.403Z,99971.41
2022-07-29T03:44:18.853Z,99986.25
2022-07-29T03:47:47.986Z,99973.78
2022-07-29T03:50:46.945Z,99977.56
2022-07-29T03:53:48.489Z,99978.34
2022-07-29T03:56:53.405Z,99971.94
2022-07-29T03:59:56.099Z,99972.47
2022-07-29T04:02:58.209Z,99966.28
2022-07-29T04:06:06.765Z,99975.66
2022-07-29T04:09:09.857Z,99981.47
2022-07-29T04:12:11.658Z,99974.59
2022-07-29T04:15:13.261Z,99975.09
2022-07-29T04:18:14.702Z,99979.31
2022-07-29T04:21:16.263Z,99985.91
2022-07-29T04:24:18.746Z,99983.91
2022-07-29T04:27:20.571Z,99985.25
2022-07-29T04:30:22.615Z,99981.22
2022-07-29T04:33:24.937Z,99998.31
2022-07-29T04:36:28.884Z,99989.66
2022-07-29T04:39:31.458Z,99997.66
2022-07-29T04:42:32.869Z,99999.50
2022-07-29T04:45:34.411Z,99994.28
2022-07-29T04:48:36.134Z,99993.00
2022-07-29T04:51:37.734Z,99984.72
2022-07-29T04:54:39.181Z,99981.50
2022-07-29T04:57:40.740Z,99980.91
2022-07-29T05:00:42.405Z,99982.75
2022-07-29T05:03:44.117Z,99989.66
2022-07-29T05:06:45.591Z,99984.66
2022-07-29T05:09:47.030Z,99992.63
2022-07-29T05:12:48.690Z,99990.50
2022-07-29T05:15:50.686Z,99990.50
2022-07-29T05:18:52.154Z,99998.03
2022-07-29T05:21:53.687Z,100001.56
2022-07-29T05:24:55.156Z,99995.97
2022-07-29T05:27:57.202Z,100005.66
2022-07-29T05:30:58.650Z,99999.72
2022-07-29T05:34:00.521Z,100005.56
2022-07-29T05:37:02.027Z,99994.53
2022-07-29T05:40:04.339Z,100005.56
2022-07-29T05:43:05.990Z,100004.22
2022-07-29T05:46:07.512Z,100009.28
2022-07-29T05:49:09.422Z,100012.94
2022-07-29T05:52:11.450Z,100004.19
2022-07-29T05:55:12.987Z,100010.00
2022-07-29T05:58:14.651Z,100007.91
2022-07-29T06:01:17.025Z,100006.31
2022-07-29T06:04:18.808Z,100014.03
2022-07-29T06:07:21.067Z,100025.69
2022-07-29T06:10:23.948Z,100021.47
2022-07-29T06:13:27.851Z,100019.88
2022-07-29T06:16:30.405Z,100016.53
2022-07-29T06:19:32.103Z,100028.75
2022-07-29T06:22:33.584Z,100031.56
2022-07-29T06:25:36.767Z,100030.63
2022-07-29T06:28:38.546Z,100029.13
2022-07-29T06:31:40.392Z,100032.88
2022-07-29T06:34:43.381Z,100034.38
2022-07-29T06:37:50.439Z,100035.97
2022-07-29T06:41:11.083Z,100031.56
2022-07-29T06:44:12.665Z,100031.84
2022-07-29T06:47:14.830Z,100039.09
2022-07-29T06:50:16.420Z,100032.84
2022-07-29T06:53:18.316Z,100041.44
2022-07-29T06:56:19.886Z,100035.00
2022-07-29T06:59:28.339Z,100036.59
2022-07-29T07:02:33.758Z,100040.81
2022-07-29T07:05:36.346Z,100056.25
2022-07-29T07:08:37.829Z,100055.56
2022-07-29T07:11:39.402Z,100050.56
2022-07-29T07:14:41.915Z,100055.94
2022-07-29T07:17:43.679Z,100063.41
2022-07-29T07:20:45.533Z,100073.66
2022-07-29T07:23:47.362Z,100065.25
2022-07-29T07:26:49.234Z,100070.91
2022-07-29T07:29:50.774Z,100063.31
2022-07-29T07:32:52.245Z,100068.44
2022-07-29T07:35:53.742Z,100069.16
2022-07-29T07:38:55.289Z,100072.84
2022-07-29T07:41:57.097Z,100069.00
2022-07-29T07:45:13.052Z,100072.28
2022-07-29T07:48:15.651Z,100071.03
2022-07-29T07:51:17.113Z,100074.31
2022-07-29T07:54:20.882Z,100069.38
2022-07-29T07:57:22.613Z,100076.47
2022-07-29T08:00:24.531Z,100067.97
2022-07-29T08:03:25.973Z,100076.69
2022-07-29T08:06:27.455Z,100067.09
2022-07-29T08:09:30.792Z,100072.94
2022-07-29T08:12:32.418Z,100074.97
2022-07-29T08:15:34.414Z,100076.88
2022-07-29T08:18:35.873Z,100080.16
2022-07-29T08:21:37.509Z,100080.97
2022-07-29T08:24:45.140Z,100076.72
2022-07-29T08:27:47.456Z,100079.47
2022-07-29T08:30:48.939Z,100083.28
2022-07-29T08:33:54.108Z,100076.72
2022-07-29T08:36:57.025Z,100084.47
2022-07-29T08:39:58.453Z,100082.03
2022-07-29T08:43:06.539Z,100081.78
2022-07-29T08:46:08.228Z,100088.84
2022-07-29T08:49:10.151Z,100091.94
2022-07-29T08:52:12.642Z,100091.59
2022-07-29T08:55:16.536Z,100090.25
2022-07-29T08:58:24.665Z,100087.00
2022-07-29T09:01:35.852Z,100089.03
2022-07-29T09:04:38.642Z,100094.09
2022-07-29T09:07:40.852Z,100093.28
2022-07-29T09:10:42.833Z,100091.25
2022-07-29T09:13:44.319Z,100092.66
2022-07-29T09:17:04.819Z,100086.97
2022-07-29T09:20:15.208Z,100090.34
2022-07-29T09:23:23.203Z,100087.28
2022-07-29T09:26:30.009Z,100085.69
2022-07-29T09:29:36.109Z,100084.53
2022-07-29T09:32:58.207Z,100077.63
2022-07-29T09:36:07.974Z,100075.34
2022-07-29T09:39:09.625Z,100088.69
2022-07-29T09:42:11.436Z,100076.00
2022-07-29T09:45:26.551Z,100085.78
2022-07-29T09:48:28.006Z,100079.09
2022-07-29T09:51:38.166Z,100081.47
2022-07-29T09:54:40.175Z,100081.03
2022-07-29T09:57:41.673Z,100086.22
2022-07-29T10:00:46.610Z,100078.50
2022-07-29T10:03:53.245Z,100067.41
2022-07-29T10:07:04.756Z,100076.94
2022-07-29T10:10:07.006Z,100073.34
2022-07-29T10:13:15.453Z,100078.47
2022-07-29T10:16:18.795Z,100082.13
2022-07-29T10:19:21.042Z,100086.50
2022-07-29T10:22:51.492Z,100083.66
2022-07-29T10:25:46.787Z,100079.34
2022-07-29T10:28:48.181Z,100083.13
2022-07-29T10:32:09.847Z,100082.06
2022-07-29T10:35:29.658Z,100084.88
2022-07-29T10:38:52.146Z,100072.47
2022-07-29T10:42:20.012Z,100071.56
2022-07-29T10:45:22.256Z,100066.47
2022-07-29T10:48:24.815Z,100060.84
2022-07-29T10:51:26.357Z,100060.84
2022-07-29T10:54:47.145Z,100058.59
2022-07-29T10:58:13.024Z,100057.38
2022-07-29T11:01:37.740Z,100049.81
2022-07-29T11:04:47.166Z,100049.66
2022-07-29T11:08:20.173Z,100048.56
2022-07-29T11:11:29.864Z,100056.81
2022-07-29T11:14:53.298Z,100054.47
2022-07-29T11:17:59.487Z,100057.44
2022-07-29T11:21:02.066Z,100048.78
2022-07-29T11:24:34.981Z,100051.34
2022-07-29T11:27:40.518Z,100044.00
2022-07-29T11:30:56.094Z,100037.59
2022-07-29T11:33:58.600Z,100037.38
2022-07-29T11:37:14.805Z,100028.63
2022-07-29T11:40:17.398Z,100031.31
2022-07-29T11:43:54.882Z,100031.72
2022-07-29T11:46:56.765Z,100031.75
2022-07-29T11:50:01.367Z,100026.25
2022-07-29T11:53:13.163Z,100030.66
2022-07-29T11:56:18.818Z,100030.44
2022-07-29T11:59:21.056Z,100031.75
2022-07-29T12:02:38.412Z,100024.78
2022-07-29T12:05:51.838Z,100023.94
2022-07-29T12:08:53.570Z,100021.22
2022-07-29T12:12:04.957Z,100016.88
2022-07-29T12:15:20.929Z,100008.22
2022-07-29T12:18:24.299Z,100006.03
2022-07-29T12:21:26.696Z,100001.63
2022-07-29T12:24:45.271Z,100003.03
2022-07-29T12:27:46.888Z,100009.34
2022-07-29T12:30:51.739Z,100008.44
2022-07-29T12:33:54.610Z,100001.06
2022-07-29T12:36:56.600Z,100013.41
2022-07-29T12:39:58.376Z,100013.31
2022-07-29T12:43:12.099Z,100009.09
2022-07-29T12:46:15.867Z,100014.75
2022-07-29T12:49:24.083Z,100008.72
2022-07-29T12:52:33.762Z,100003.13
2022-07-29T12:55:49.891Z,99991.66
2022-07-29T12:58:51.612Z,100004.34
2022-07-29T13:01:53.430Z,99991.59
2022-07-29T13:04:59.646Z,99994.19
2022-07-29T13:08:22.016Z,99991.56
2022-07-29T13:11:35.538Z,100002.56
2022-07-29T13:14:41.135Z,99991.63
2022-07-29T13:17:44.421Z,99994.47
2022-07-29T13:20:50.045Z,99988.97
2022-07-29T13:23:51.623Z,99987.22
2022-07-29T13:26:53.309Z,99992.53
2022-07-29T13:29:58.233Z,99986.25
2022-07-29T13:33:01.195Z,99982.59
2022-07-29T13:36:02.622Z,99996.13
2022-07-29T13:39:04.698Z,99996.13
2022-07-29T13:42:10.739Z,99988.13
2022-07-29T13:45:12.760Z,99987.16
2022-07-29T13:48:14.245Z,99984.47
2022-07-29T13:51:15.721Z,99999.91
2022-07-29T13:54:17.581Z,99986.28
2022-07-29T13:57:19.054Z,99993.53
2022-07-29T14:00:20.866Z,99981.75
2022-07-29T14:03:22.333Z,99991.75
2022-07-29T14:06:23.767Z,99985.41
2022-07-29T14:09:25.376Z,99976.28
2022-07-29T14:12:26.847Z,99976.22
2022-07-29T14:15:28.319Z,99970.81
2022-07-29T14:18:29.748Z,99983.59
2022-07-29T14:21:31.523Z,99978.97
2022-07-29T14:24:37.377Z,99977.22
2022-07-29T14:27:39.227Z,99975.47
2022-07-29T14:30:40.841Z,99985.44
2022-07-29T14:33:42.613Z,99976.31
2022-07-29T14:36:47.855Z,99977.25
2022-07-29T14:39:49.386Z,99981.66
2022-07-29T14:42:50.921Z,99987.16
2022-07-29T14:45:54.232Z,99980.66
2022-07-29T14:48:58.854Z,99978.88
2022-07-29T14:52:00.639Z,99969.03
2022-07-29T14:55:03.315Z,99978.94
2022-07-29T14:58:10.972Z,99968.88
2022-07-29T15:01:13.662Z,99979.88
2022-07-29T15:04:15.235Z,99978.00
2022-07-29T15:07:16.868Z,99986.31
2022-07-29T15:10:18.497Z,99983.47
2022-07-29T15:13:20.427Z,99983.47
2022-07-29T15:16:21.943Z,99986.34
2022-07-29T15:19:23.484Z,99987.13
2022-07-29T15:22:24.917Z,99993.56
2022-07-29T15:25:28.268Z,99976.97
2022-07-29T15:28:29.986Z,99977.03
2022-07-29T15:31:31.647Z,99981.69
2022-07-29T15:34:33.170Z,99988.91
2022-07-29T15:37:48.918Z,99990.72
2022-07-29T15:40:51.100Z,99989.69
2022-07-29T15:43:52.711Z,99989.56
2022-07-29T15:47:09.280Z,99982.44
2022-07-29T15:50:15.711Z,99982.41
2022-07-29T15:53:17.229Z,99986.06
2022-07-29T15:56:19.243Z,99979.88
2022-07-29T15:59:22.055Z,99970.59
2022-07-29T16:02:24.361Z,99967.94
2022-07-29T16:05:29.634Z,99974.19
2022-07-29T16:08:31.197Z,99983.09
2022-07-29T16:11:32.867Z,99973.16
2022-07-29T16:14:34.783Z,99967.91
2022-07-29T16:17:36.372Z,99970.59
2022-07-29T16:20:38.396Z,99970.56
2022-07-29T16:23:40.206Z,99991.59
2022-07-29T16:26:41.663Z,99980.78
2022-07-29T16:29:43.150Z,99997.59
2022-07-29T16:32:44.640Z,100003.13
2022-07-29T16:35:46.216Z,99997.94
2022-07-29T16:38:48.453Z,99985.34
2022-07-29T16:41:49.959Z,99976.53
2022-07-29T16:44:51.620Z,99983.56
2022-07-29T16:47:58.469Z,99974.72
2022-07-29T16:51:01.996Z,99973.22
2022-07-29T16:54:03.452Z,99982.03
2022-07-29T16:57:04.972Z,99994.59
2022-07-29T17:00:07.302Z,99997.28
2022-07-29T17:03:08.826Z,99999.25
2022-07-29T17:06:11.735Z,100001.69
2022-07-29T17:09:15.117Z,100011.84
2022-07-29T17:12:16.692Z,100016.06
2022-07-29T17:15:18.924Z,100016.81
2022-07-29T17:18:20.329Z,100023.88
2022-07-29T17:21:23.770Z,100029.66
2022-07-29T17:24:25.302Z,100018.06
2022-07-29T17:27:26.900Z,100007.97
2022-07-29T17:30:29.553Z,100014.31
2022-07-29T17:33:31.203Z,100006.97
2022-07-29T17:36:32.888Z,100020.31
2022-07-29T17:39:35.533Z,100017.13
2022-07-29T17:42:37.002Z,100010.44
2022-07-29T17:45:48.759Z,100025.38
2022-07-29T17:48:52.630Z,100027.59
2022-07-29T17:52:00.762Z,100023.06
2022-07-29T17:55:02.704Z,100020.41
2022-07-29T17:58:04.227Z,100022.63
2022-07-29T18:01:06.300Z,100033.69
2022-07-29T18:04:08.944Z,100043.28
2022-07-29T18:07:11.492Z,100037.69
2022-07-29T18:10:13.007Z,100039.09
2022-07-29T18:13:14.559Z,100040.66
2022-07-29T18:16:16.116Z,100051.84
2022-07-29T18:19:17.594Z,100059.22
2022-07-29T18:22:19.596Z,100065.31
2022-07-29T18:25:21.259Z,100074.22
2022-07-29T18:28:22.772Z,100077.47
2022-07-29T18:31:25.272Z,100086.22
2022-07-29T18:34:27.511Z,100099.50
2022-07-29T18:38:00.915Z,100085.50
2022-07-29T18:40:50.804Z,100086.75
2022-07-29T18:43:52.261Z,100090.56
2022-07-29T18:46:55.529Z,100094.81
2022-07-29T18:49:57.074Z,100085.09
2022-07-29T18:53:01.085Z,100101.31
2022-07-29T18:56:03.412Z,100098.56
2022-07-29T18:59:04.985Z,100104.34
2022-07-29T19:02:06.992Z,100113.47
2022-07-29T19:05:10.030Z,100117.66
2022-07-29T19:08:11.695Z,100124.88
2022-07-29T19:11:13.265Z,100120.53
2022-07-29T19:14:14.842Z,100121.72
2022-07-29T19:17:16.468Z,100124.41
2022-07-29T19:20:18.066Z,100129.31
2022-07-29T19:23:19.725Z,100108.97
2022-07-29T19:26:21.326Z,100104.34
2022-07-29T19:29:24.768Z,100108.13
2022-07-29T19:32:26.836Z,100117.34
2022-07-29T19:35:28.537Z,100126.91
2022-07-29T19:38:30.030Z,100136.41
2022-07-29T19:41:31.579Z,100150.72
2022-07-29T19:44:33.017Z,100158.56
2022-07-29T19:47:34.775Z,100146.75
2022-07-29T19:50:36.867Z,100150.88
2022-07-29T19:53:38.440Z,100160.97
2022-07-29T19:56:42.260Z,100163.47
2022-07-29T19:59:44.247Z,100174.69
2022-07-29T20:02:46.470Z,100173.13
2022-07-29T20:05:51.022Z,100173.16
2022-07-29T20:08:56.719Z,100182.09
2022-07-29T20:11:59.738Z,100186.13
2022-07-29T20:15:01.310Z,100199.00
2022-07-29T20:18:02.813Z,100196.72
2022-07-29T20:21:04.974Z,100196.38
2022-07-29T20:24:07.120Z,100200.84
2022-07-29T20:27:13.557Z,100198.53
2022-07-29T20:30:15.488Z,100211.09
2022-07-29T20:33:19.222Z,100211.72
2022-07-29T20:36:20.810Z,100211.00
2022-07-29T20:39:22.268Z,100200.91
2022-07-29T20:42:26.384Z,100201.81
2022-07-29T20:45:27.860Z,100217.78
2022-07-29T20:48:29.373Z,100212.06
2022-07-29T20:51:32.250Z,100217.88
2022-07-29T20:54:45.790Z,100222.81
2022-07-29T20:57:47.237Z,100226.13
2022-07-29T21:00:49.081Z,100231.47
2022-07-29T21:03:50.802Z,100234.00
2022-07-29T21:06:53.359Z,100236.09
2022-07-29T21:09:54.987Z,100229.88
2022-07-29T21:12:56.468Z,100234.00
2022-07-29T21:16:02.008Z,100235.97
2022-07-29T21:19:05.817Z,100234.16
2022-07-29T21:22:07.439Z,100240.00
2022-07-29T21:25:10.689Z,100234.25
2022-07-29T21:28:50.179Z,100226.19
2022-07-29T21:31:52.094Z,100236.41
2022-07-29T21:34:53.642Z,100227.28
2022-07-29T21:37:55.166Z,100245.88
2022-07-29T21:40:57.310Z,100249.53
2022-07-29T21:43:59.618Z,100249.38
2022-07-29T21:47:03.430Z,100249.22
2022-07-29T21:50:05.677Z,100251.59
2022-07-29T21:53:07.179Z,100261.66
2022-07-29T21:56:14.867Z,100264.97
2022-07-29T21:59:16.750Z,100261.00
2022-07-29T22:02:18.509Z,100268.75
2022-07-29T22:05:20.458Z,100271.13
2022-07-29T22:08:21.864Z,100271.75
2022-07-29T22:11:23.322Z,100262.50
2022-07-29T22:14:24.782Z,100259.41
2022-07-29T22:17:36.038Z,100255.72
2022-07-29T22:20:38.595Z,100257.94
2022-07-29T22:23:43.526Z,100259.41
2022-07-29T22:26:44.982Z,100270.28
2022-07-29T22:29:46.462Z,100280.75
2022-07-29T22:32:49.552Z,100278.66
2022-07-29T22:35:51.061Z,100284.41
2022-07-29T22:38:52.465Z,100271.84
2022-07-29T22:41:53.999Z,100275.31
2022-07-29T22:44:58.459Z,100275.59
2022-07-29T22:47:59.950Z,100263.56
2022-07-29T22:51:01.392Z,100264.59
2022-07-29T22:54:03.997Z,100273.09
2022-07-29T22:57:06.168Z,100277.97
2022-07-29T23:00:08.595Z,100279.44
2022-07-29T23:03:10.109Z,100278.50
2022-07-29T23:06:11.615Z,100278.22
2022-07-29T23:09:13.061Z,100278.72
2022-07-29T23:12:14.615Z,100283.81
2022-07-29T23:15:16.081Z,100281.78
2022-07-29T23:18:19.637Z,100288.84
2022-07-29T23:21:21.108Z,100294.97
2022-07-29T23:24:22.614Z,100287.91
2022-07-29T23:27:24.152Z,100291.97
2022-07-29T23:30:25.839Z,100292.03
2022-07-29T23:33:27.840Z,100290.91
2022-07-29T23:36:29.526Z,100291.34
2022-07-29T23:39:31.023Z,100290.63
2022-07-29T23:42:32.578Z,100300.28
2022-07-29T23:45:44.609Z,100301.66
2022-07-29T23:48:50.121Z,100300.66
2022-07-29T23:51:51.680Z,100300.69
2022-07-29T23:54:54.553Z,100289.25
2022-07-29T23:58:15.985Z,100299.81
